sensor_id;sensor_type;location;lat;lon;timestamp;temperature;humidity
72591;SHT31;60625;51.212;5.952;2022-07-17T00:01:45;16.16;59.87
72591;SHT31;60625;51.212;5.952;2022-07-17T00:06:45;16.16;59.83
72591;SHT31;60625;51.212;5.952;2022-07-17T00:11:46;16.12;60.40
72591;SHT31;60625;51.212;5.952;2022-07-17T00:16:46;16.08;60.54
72591;SHT31;60625;51.212;5.952;2022-07-17T00:21:46;15.93;60.94
72591;SHT31;60625;51.212;5.952;2022-07-17T00:26:47;15.73;61.69
72591;SHT31;60625;51.212;5.952;2022-07-17T00:31:50;15.62;62.26
72591;SHT31;60625;51.212;5.952;2022-07-17T00:36:50;15.59;62.40
72591;SHT31;60625;51.212;5.952;2022-07-17T00:41:51;15.49;62.78
72591;SHT31;60625;51.212;5.952;2022-07-17T00:46:51;15.43;63.09
72591;SHT31;60625;51.212;5.952;2022-07-17T00:51:52;15.37;63.05
72591;SHT31;60625;51.212;5.952;2022-07-17T00:56:52;15.36;63.01
72591;SHT31;60625;51.212;5.952;2022-07-17T01:01:56;15.24;63.33
72591;SHT31;60625;51.212;5.952;2022-07-17T01:06:57;15.15;63.72
72591;SHT31;60625;51.212;5.952;2022-07-17T01:11:59;15.06;63.93
72591;SHT31;60625;51.212;5.952;2022-07-17T01:17:00;15.01;64.06
72591;SHT31;60625;51.212;5.952;2022-07-17T01:22:01;15.00;64.06
72591;SHT31;60625;51.212;5.952;2022-07-17T01:27:02;14.92;64.22
72591;SHT31;60625;51.212;5.952;2022-07-17T01:32:03;14.81;64.36
72591;SHT31;60625;51.212;5.952;2022-07-17T01:37:04;14.84;64.46
72591;SHT31;60625;51.212;5.952;2022-07-17T01:42:05;14.86;64.48
72591;SHT31;60625;51.212;5.952;2022-07-17T01:47:06;14.88;64.43
72591;SHT31;60625;51.212;5.952;2022-07-17T01:52:06;14.91;64.37
72591;SHT31;60625;51.212;5.952;2022-07-17T01:57:07;14.93;64.34
72591;SHT31;60625;51.212;5.952;2022-07-17T02:02:09;14.82;64.61
72591;SHT31;60625;51.212;5.952;2022-07-17T02:07:12;14.70;64.94
72591;SHT31;60625;51.212;5.952;2022-07-17T02:12:13;14.62;65.08
72591;SHT31;60625;51.212;5.952;2022-07-17T02:17:13;14.57;65.23
72591;SHT31;60625;51.212;5.952;2022-07-17T02:22:14;14.48;65.38
72591;SHT31;60625;51.212;5.952;2022-07-17T02:27:14;14.42;65.72
72591;SHT31;60625;51.212;5.952;2022-07-17T02:32:15;14.34;65.93
72591;SHT31;60625;51.212;5.952;2022-07-17T02:37:15;14.28;66.04
72591;SHT31;60625;51.212;5.952;2022-07-17T02:42:16;14.24;66.19
72591;SHT31;60625;51.212;5.952;2022-07-17T02:47:20;14.21;66.28
72591;SHT31;60625;51.212;5.952;2022-07-17T02:52:27;14.26;66.22
72591;SHT31;60625;51.212;5.952;2022-07-17T02:57:28;14.37;66.07
72591;SHT31;60625;51.212;5.952;2022-07-17T03:02:29;14.41;65.92
72591;SHT31;60625;51.212;5.952;2022-07-17T03:07:29;14.39;65.89
72591;SHT31;60625;51.212;5.952;2022-07-17T03:12:30;14.39;65.86
72591;SHT31;60625;51.212;5.952;2022-07-17T03:17:30;14.32;66.00
72591;SHT31;60625;51.212;5.952;2022-07-17T03:22:31;14.28;66.08
72591;SHT31;60625;51.212;5.952;2022-07-17T03:27:31;14.18;66.14
72591;SHT31;60625;51.212;5.952;2022-07-17T03:32:32;14.05;66.46
72591;SHT31;60625;51.212;5.952;2022-07-17T03:37:32;14.02;66.57
72591;SHT31;60625;51.212;5.952;2022-07-17T03:42:33;13.87;66.87
72591;SHT31;60625;51.212;5.952;2022-07-17T03:47:33;13.78;67.21
72591;SHT31;60625;51.212;5.952;2022-07-17T03:52:34;13.76;67.38
72591;SHT31;60625;51.212;5.952;2022-07-17T03:57:35;13.81;67.50
72591;SHT31;60625;51.212;5.952;2022-07-17T04:02:35;13.92;67.38
72591;SHT31;60625;51.212;5.952;2022-07-17T04:07:37;13.96;67.14
72591;SHT31;60625;51.212;5.952;2022-07-17T04:12:39;13.80;67.40
72591;SHT31;60625;51.212;5.952;2022-07-17T04:17:40;13.70;67.57
72591;SHT31;60625;51.212;5.952;2022-07-17T04:22:41;13.67;67.70
72591;SHT31;60625;51.212;5.952;2022-07-17T04:27:41;13.60;67.97
72591;SHT31;60625;51.212;5.952;2022-07-17T04:32:41;13.56;68.29
72591;SHT31;60625;51.212;5.952;2022-07-17T04:37:42;13.51;68.54
72591;SHT31;60625;51.212;5.952;2022-07-17T04:42:42;13.56;68.75
72591;SHT31;60625;51.212;5.952;2022-07-17T04:47:43;13.74;68.68
72591;SHT31;60625;51.212;5.952;2022-07-17T04:52:43;13.94;68.51
72591;SHT31;60625;51.212;5.952;2022-07-17T04:57:44;14.14;68.28
72591;SHT31;60625;51.212;5.952;2022-07-17T05:02:45;14.23;68.31
72591;SHT31;60625;51.212;5.952;2022-07-17T05:07:45;14.24;67.93
72591;SHT31;60625;51.212;5.952;2022-07-17T05:12:46;14.34;67.86
72591;SHT31;60625;51.212;5.952;2022-07-17T05:17:46;14.46;67.61
72591;SHT31;60625;51.212;5.952;2022-07-17T05:22:46;14.53;68.10
72591;SHT31;60625;51.212;5.952;2022-07-17T05:27:47;14.58;68.21
72591;SHT31;60625;51.212;5.952;2022-07-17T05:32:48;14.65;68.53
72591;SHT31;60625;51.212;5.952;2022-07-17T05:37:49;14.78;68.17
72591;SHT31;60625;51.212;5.952;2022-07-17T05:42:49;14.98;67.91
72591;SHT31;60625;51.212;5.952;2022-07-17T05:47:50;15.13;67.56
72591;SHT31;60625;51.212;5.952;2022-07-17T05:52:50;15.29;67.21
72591;SHT31;60625;51.212;5.952;2022-07-17T05:57:50;15.45;67.25
72591;SHT31;60625;51.212;5.952;2022-07-17T06:02:51;15.48;67.37
72591;SHT31;60625;51.212;5.952;2022-07-17T06:07:52;15.53;67.08
72591;SHT31;60625;51.212;5.952;2022-07-17T06:12:54;15.55;67.58
72591;SHT31;60625;51.212;5.952;2022-07-17T06:17:55;15.69;67.61
72591;SHT31;60625;51.212;5.952;2022-07-17T06:22:55;15.83;67.50
72591;SHT31;60625;51.212;5.952;2022-07-17T06:27:56;15.92;67.31
72591;SHT31;60625;51.212;5.952;2022-07-17T06:32:57;16.06;66.99
72591;SHT31;60625;51.212;5.952;2022-07-17T06:37:57;16.12;66.92
72591;SHT31;60625;51.212;5.952;2022-07-17T06:42:58;16.23;66.99
72591;SHT31;60625;51.212;5.952;2022-07-17T06:47:58;16.48;66.53
72591;SHT31;60625;51.212;5.952;2022-07-17T06:52:59;16.78;65.86
72591;SHT31;60625;51.212;5.952;2022-07-17T06:57:59;17.06;65.29
72591;SHT31;60625;51.212;5.952;2022-07-17T07:03:00;17.35;64.46
72591;SHT31;60625;51.212;5.952;2022-07-17T07:08:00;17.61;63.56
72591;SHT31;60625;51.212;5.952;2022-07-17T07:13:01;17.89;63.01
72591;SHT31;60625;51.212;5.952;2022-07-17T07:18:01;18.13;61.80
72591;SHT31;60625;51.212;5.952;2022-07-17T07:23:02;18.42;61.44
72591;SHT31;60625;51.212;5.952;2022-07-17T07:28:03;18.72;60.90
72591;SHT31;60625;51.212;5.952;2022-07-17T07:33:04;18.91;60.28
72591;SHT31;60625;51.212;5.952;2022-07-17T07:38:05;19.18;59.62
72591;SHT31;60625;51.212;5.952;2022-07-17T07:43:05;19.39;57.83
72591;SHT31;60625;51.212;5.952;2022-07-17T07:48:06;19.65;56.74
72591;SHT31;60625;51.212;5.952;2022-07-17T07:53:06;19.85;56.29
72591;SHT31;60625;51.212;5.952;2022-07-17T07:58:08;20.09;55.66
72591;SHT31;60625;51.212;5.952;2022-07-17T08:03:11;20.30;54.67
72591;SHT31;60625;51.212;5.952;2022-07-17T08:08:13;20.56;53.99
72591;SHT31;60625;51.212;5.952;2022-07-17T08:13:13;20.76;52.94
72591;SHT31;60625;51.212;5.952;2022-07-17T08:18:13;21.00;52.44
72591;SHT31;60625;51.212;5.952;2022-07-17T08:23:14;21.16;51.02
72591;SHT31;60625;51.212;5.952;2022-07-17T08:28:15;21.58;49.46
72591;SHT31;60625;51.212;5.952;2022-07-17T08:33:15;21.82;49.03
72591;SHT31;60625;51.212;5.952;2022-07-17T08:38:18;22.10;48.53
72591;SHT31;60625;51.212;5.952;2022-07-17T08:43:18;22.39;47.97
72591;SHT31;60625;51.212;5.952;2022-07-17T08:48:18;22.58;47.63
72591;SHT31;60625;51.212;5.952;2022-07-17T08:53:19;22.66;47.01
72591;SHT31;60625;51.212;5.952;2022-07-17T08:58:19;22.80;46.55
72591;SHT31;60625;51.212;5.952;2022-07-17T09:03:20;22.91;46.25
72591;SHT31;60625;51.212;5.952;2022-07-17T09:08:23;23.15;46.02
72591;SHT31;60625;51.212;5.952;2022-07-17T09:13:25;23.51;45.00
72591;SHT31;60625;51.212;5.952;2022-07-17T09:18:31;23.63;44.35
72591;SHT31;60625;51.212;5.952;2022-07-17T09:24:06;23.82;43.72
72591;SHT31;60625;51.212;5.952;2022-07-17T09:29:07;23.83;43.03
72591;SHT31;60625;51.212;5.952;2022-07-17T09:34:17;23.93;43.31
72591;SHT31;60625;51.212;5.952;2022-07-17T09:39:19;24.42;42.71
72591;SHT31;60625;51.212;5.952;2022-07-17T09:44:19;24.77;42.08
72591;SHT31;60625;51.212;5.952;2022-07-17T09:49:20;24.84;41.58
72591;SHT31;60625;51.212;5.952;2022-07-17T09:54:26;24.81;41.63
72591;SHT31;60625;51.212;5.952;2022-07-17T09:59:28;25.21;40.78
72591;SHT31;60625;51.212;5.952;2022-07-17T10:04:35;25.15;40.47
72591;SHT31;60625;51.212;5.952;2022-07-17T10:09:36;25.07;40.06
72591;SHT31;60625;51.212;5.952;2022-07-17T10:14:37;25.42;40.38
72591;SHT31;60625;51.212;5.952;2022-07-17T10:19:46;25.70;39.56
72591;SHT31;60625;51.212;5.952;2022-07-17T10:24:56;25.69;38.40
72591;SHT31;60625;51.212;5.952;2022-07-17T10:30:01;25.81;37.90
72591;SHT31;60625;51.212;5.952;2022-07-17T10:35:06;25.89;37.22
72591;SHT31;60625;51.212;5.952;2022-07-17T10:40:19;25.92;36.72
72591;SHT31;60625;51.212;5.952;2022-07-17T10:45:27;25.83;36.36
72591;SHT31;60625;51.212;5.952;2022-07-17T10:50:44;25.91;36.78
72591;SHT31;60625;51.212;5.952;2022-07-17T10:55:55;25.99;37.15
72591;SHT31;60625;51.212;5.952;2022-07-17T11:01:02;26.10;36.40
72591;SHT31;60625;51.212;5.952;2022-07-17T11:11:21;26.20;37.08
72591;SHT31;60625;51.212;5.952;2022-07-17T11:16:35;26.50;36.67
72591;SHT31;60625;51.212;5.952;2022-07-17T11:21:44;26.50;36.82
72591;SHT31;60625;51.212;5.952;2022-07-17T11:26:48;26.64;36.24
72591;SHT31;60625;51.212;5.952;2022-07-17T11:31:54;26.78;35.79
72591;SHT31;60625;51.212;5.952;2022-07-17T11:37:03;26.82;35.33
72591;SHT31;60625;51.212;5.952;2022-07-17T11:42:09;26.88;35.31
72591;SHT31;60625;51.212;5.952;2022-07-17T11:47:21;27.00;35.14
72591;SHT31;60625;51.212;5.952;2022-07-17T11:52:26;27.04;35.47
72591;SHT31;60625;51.212;5.952;2022-07-17T11:57:27;27.18;35.31
72591;SHT31;60625;51.212;5.952;2022-07-17T12:02:28;27.42;34.39
72591;SHT31;60625;51.212;5.952;2022-07-17T12:07:47;27.41;33.51
72591;SHT31;60625;51.212;5.952;2022-07-17T12:13:01;27.45;33.10
72591;SHT31;60625;51.212;5.952;2022-07-17T12:18:07;27.60;32.53
72591;SHT31;60625;51.212;5.952;2022-07-17T12:28:40;27.50;31.43
72591;SHT31;60625;51.212;5.952;2022-07-17T12:33:42;27.53;31.62
72591;SHT31;60625;51.212;5.952;2022-07-17T12:38:43;27.84;31.25
72591;SHT31;60625;51.212;5.952;2022-07-17T12:43:44;27.84;30.52
72591;SHT31;60625;51.212;5.952;2022-07-17T12:48:45;27.98;30.67
72591;SHT31;60625;51.212;5.952;2022-07-17T12:53:46;28.20;30.45
72591;SHT31;60625;51.212;5.952;2022-07-17T12:58:46;28.24;29.84
72591;SHT31;60625;51.212;5.952;2022-07-17T13:03:47;28.20;29.80
72591;SHT31;60625;51.212;5.952;2022-07-17T13:08:47;28.32;29.57
72591;SHT31;60625;51.212;5.952;2022-07-17T13:13:49;28.46;30.00
72591;SHT31;60625;51.212;5.952;2022-07-17T13:18:49;28.50;30.24
72591;SHT31;60625;51.212;5.952;2022-07-17T13:23:50;28.64;29.74
72591;SHT31;60625;51.212;5.952;2022-07-17T13:28:50;28.60;29.56
72591;SHT31;60625;51.212;5.952;2022-07-17T13:33:51;28.66;29.46
72591;SHT31;60625;51.212;5.952;2022-07-17T13:38:52;28.78;29.92
72591;SHT31;60625;51.212;5.952;2022-07-17T13:43:52;28.71;28.97
72591;SHT31;60625;51.212;5.952;2022-07-17T13:48:52;28.76;28.44
72591;SHT31;60625;51.212;5.952;2022-07-17T13:53:53;28.91;29.27
72591;SHT31;60625;51.212;5.952;2022-07-17T13:58:54;29.11;29.22
72591;SHT31;60625;51.212;5.952;2022-07-17T14:03:55;28.91;29.08
72591;SHT31;60625;51.212;5.952;2022-07-17T14:08:55;29.01;29.05
72591;SHT31;60625;51.212;5.952;2022-07-17T14:13:56;28.99;27.64
72591;SHT31;60625;51.212;5.952;2022-07-17T14:18:56;29.02;26.75
72591;SHT31;60625;51.212;5.952;2022-07-17T14:24:01;28.96;25.42
72591;SHT31;60625;51.212;5.952;2022-07-17T14:29:03;28.80;25.31
72591;SHT31;60625;51.212;5.952;2022-07-17T14:34:05;28.95;24.94
72591;SHT31;60625;51.212;5.952;2022-07-17T14:39:07;29.08;25.48
72591;SHT31;60625;51.212;5.952;2022-07-17T14:44:07;29.14;25.07
72591;SHT31;60625;51.212;5.952;2022-07-17T14:49:09;29.14;24.97
72591;SHT31;60625;51.212;5.952;2022-07-17T14:54:10;29.15;24.85
72591;SHT31;60625;51.212;5.952;2022-07-17T14:59:12;29.23;24.59
72591;SHT31;60625;51.212;5.952;2022-07-17T15:04:13;29.42;25.21
72591;SHT31;60625;51.212;5.952;2022-07-17T15:09:13;29.48;25.15
72591;SHT31;60625;51.212;5.952;2022-07-17T15:14:14;29.43;25.29
72591;SHT31;60625;51.212;5.952;2022-07-17T15:19:14;29.39;25.84
72591;SHT31;60625;51.212;5.952;2022-07-17T15:24:15;29.38;26.04
72591;SHT31;60625;51.212;5.952;2022-07-17T15:29:16;29.42;26.21
72591;SHT31;60625;51.212;5.952;2022-07-17T15:34:17;29.39;26.05
72591;SHT31;60625;51.212;5.952;2022-07-17T15:39:18;29.44;26.83
72591;SHT31;60625;51.212;5.952;2022-07-17T15:44:19;29.45;26.48
72591;SHT31;60625;51.212;5.952;2022-07-17T15:49:19;29.40;26.45
72591;SHT31;60625;51.212;5.952;2022-07-17T15:54:20;29.36;26.44
72591;SHT31;60625;51.212;5.952;2022-07-17T15:59:21;29.26;26.40
72591;SHT31;60625;51.212;5.952;2022-07-17T16:04:21;29.18;26.44
72591;SHT31;60625;51.212;5.952;2022-07-17T16:09:22;29.13;26.45
72591;SHT31;60625;51.212;5.952;2022-07-17T16:14:25;29.07;26.72
72591;SHT31;60625;51.212;5.952;2022-07-17T16:19:25;28.86;26.85
72591;SHT31;60625;51.212;5.952;2022-07-17T16:24:26;28.72;26.69
72591;SHT31;60625;51.212;5.952;2022-07-17T16:29:26;28.68;27.32
72591;SHT31;60625;51.212;5.952;2022-07-17T16:34:27;28.62;27.08
72591;SHT31;60625;51.212;5.952;2022-07-17T16:39:27;28.55;27.32
72591;SHT31;60625;51.212;5.952;2022-07-17T16:44:28;28.46;26.83
72591;SHT31;60625;51.212;5.952;2022-07-17T16:49:28;28.46;27.74
72591;SHT31;60625;51.212;5.952;2022-07-17T16:54:29;28.43;27.17
72591;SHT31;60625;51.212;5.952;2022-07-17T16:59:30;28.43;26.94
72591;SHT31;60625;51.212;5.952;2022-07-17T17:04:30;28.35;27.11
72591;SHT31;60625;51.212;5.952;2022-07-17T17:09:31;28.27;27.20
72591;SHT31;60625;51.212;5.952;2022-07-17T17:14:31;28.22;27.38
72591;SHT31;60625;51.212;5.952;2022-07-17T17:19:32;28.19;27.42
72591;SHT31;60625;51.212;5.952;2022-07-17T17:24:32;28.06;27.31
72591;SHT31;60625;51.212;5.952;2022-07-17T17:29:33;27.99;28.10
72591;SHT31;60625;51.212;5.952;2022-07-17T17:34:34;27.97;28.42
72591;SHT31;60625;51.212;5.952;2022-07-17T17:39:35;27.92;28.66
72591;SHT31;60625;51.212;5.952;2022-07-17T17:44:36;27.81;28.18
72591;SHT31;60625;51.212;5.952;2022-07-17T17:49:36;27.73;28.90
72591;SHT31;60625;51.212;5.952;2022-07-17T17:54:37;27.64;29.50
72591;SHT31;60625;51.212;5.952;2022-07-17T17:59:37;27.53;29.51
72591;SHT31;60625;51.212;5.952;2022-07-17T18:04:38;27.43;30.83
72591;SHT31;60625;51.212;5.952;2022-07-17T18:09:38;27.30;31.58
72591;SHT31;60625;51.212;5.952;2022-07-17T18:14:39;27.17;32.65
72591;SHT31;60625;51.212;5.952;2022-07-17T18:19:40;27.04;33.77
72591;SHT31;60625;51.212;5.952;2022-07-17T18:24:40;26.92;33.60
72591;SHT31;60625;51.212;5.952;2022-07-17T18:29:41;26.79;33.68
72591;SHT31;60625;51.212;5.952;2022-07-17T18:34:41;26.66;33.60
72591;SHT31;60625;51.212;5.952;2022-07-17T18:39:42;26.49;33.56
72591;SHT31;60625;51.212;5.952;2022-07-17T18:44:43;26.31;33.71
72591;SHT31;60625;51.212;5.952;2022-07-17T18:49:43;26.17;33.78
72591;SHT31;60625;51.212;5.952;2022-07-17T18:54:44;25.97;35.12
72591;SHT31;60625;51.212;5.952;2022-07-17T18:59:44;25.77;35.06
72591;SHT31;60625;51.212;5.952;2022-07-17T19:04:47;25.54;35.40
72591;SHT31;60625;51.212;5.952;2022-07-17T19:09:48;25.34;35.96
72591;SHT31;60625;51.212;5.952;2022-07-17T19:14:49;25.21;36.37
72591;SHT31;60625;51.212;5.952;2022-07-17T19:19:50;25.14;36.87
72591;SHT31;60625;51.212;5.952;2022-07-17T19:24:50;24.98;37.67
72591;SHT31;60625;51.212;5.952;2022-07-17T19:29:51;24.79;37.76
72591;SHT31;60625;51.212;5.952;2022-07-17T19:34:54;24.63;37.81
72591;SHT31;60625;51.212;5.952;2022-07-17T19:39:54;24.47;38.83
72591;SHT31;60625;51.212;5.952;2022-07-17T19:44:55;24.33;39.34
72591;SHT31;60625;51.212;5.952;2022-07-17T19:49:55;24.09;39.36
72591;SHT31;60625;51.212;5.952;2022-07-17T19:54:55;23.91;38.99
72591;SHT31;60625;51.212;5.952;2022-07-17T19:59:56;23.79;39.24
72591;SHT31;60625;51.212;5.952;2022-07-17T20:04:57;23.55;40.06
72591;SHT31;60625;51.212;5.952;2022-07-17T20:09:58;23.32;40.61
72591;SHT31;60625;51.212;5.952;2022-07-17T20:14:59;23.03;41.54
72591;SHT31;60625;51.212;5.952;2022-07-17T20:19:59;22.90;42.10
72591;SHT31;60625;51.212;5.952;2022-07-17T20:24:59;22.76;42.49
72591;SHT31;60625;51.212;5.952;2022-07-17T20:30:01;22.61;42.98
72591;SHT31;60625;51.212;5.952;2022-07-17T20:35:02;22.40;43.27
72591;SHT31;60625;51.212;5.952;2022-07-17T20:40:04;22.26;43.09
72591;SHT31;60625;51.212;5.952;2022-07-17T20:45:06;22.11;43.33
72591;SHT31;60625;51.212;5.952;2022-07-17T20:50:07;22.02;43.88
72591;SHT31;60625;51.212;5.952;2022-07-17T20:55:09;21.85;44.69
72591;SHT31;60625;51.212;5.952;2022-07-17T21:00:10;21.60;45.77
72591;SHT31;60625;51.212;5.952;2022-07-17T21:05:12;21.33;47.95
72591;SHT31;60625;51.212;5.952;2022-07-17T21:10:13;21.21;48.17
72591;SHT31;60625;51.212;5.952;2022-07-17T21:15:14;21.18;48.01
72591;SHT31;60625;51.212;5.952;2022-07-17T21:20:17;21.06;48.31
72591;SHT31;60625;51.212;5.952;2022-07-17T21:25:18;21.03;48.49
72591;SHT31;60625;51.212;5.952;2022-07-17T21:30:18;20.99;48.34
72591;SHT31;60625;51.212;5.952;2022-07-17T21:35:20;20.91;48.32
72591;SHT31;60625;51.212;5.952;2022-07-17T21:40:21;20.81;48.49
72591;SHT31;60625;51.212;5.952;2022-07-17T21:45:22;20.77;48.49
72591;SHT31;60625;51.212;5.952;2022-07-17T21:50:23;20.68;48.79
72591;SHT31;60625;51.212;5.952;2022-07-17T21:55:24;20.56;48.94
72591;SHT31;60625;51.212;5.952;2022-07-17T22:00:25;20.46;49.33
72591;SHT31;60625;51.212;5.952;2022-07-17T22:05:26;20.37;49.47
72591;SHT31;60625;51.212;5.952;2022-07-17T22:10:27;20.27;49.83
72591;SHT31;60625;51.212;5.952;2022-07-17T22:15:30;20.24;50.01
72591;SHT31;60625;51.212;5.952;2022-07-17T22:20:31;20.11;50.47
72591;SHT31;60625;51.212;5.952;2022-07-17T22:25:33;19.98;50.40
72591;SHT31;60625;51.212;5.952;2022-07-17T22:30:34;19.87;51.26
72591;SHT31;60625;51.212;5.952;2022-07-17T22:35:34;19.73;52.08
72591;SHT31;60625;51.212;5.952;2022-07-17T22:40:36;19.58;52.83
72591;SHT31;60625;51.212;5.952;2022-07-17T22:45:36;19.48;53.21
72591;SHT31;60625;51.212;5.952;2022-07-17T22:50:37;19.34;53.50
72591;SHT31;60625;51.212;5.952;2022-07-17T22:55:37;19.20;53.24
72591;SHT31;60625;51.212;5.952;2022-07-17T23:00:38;19.13;53.57
72591;SHT31;60625;51.212;5.952;2022-07-17T23:05:39;19.13;53.42
72591;SHT31;60625;51.212;5.952;2022-07-17T23:10:40;19.15;53.47
72591;SHT31;60625;51.212;5.952;2022-07-17T23:15:41;19.12;53.73
72591;SHT31;60625;51.212;5.952;2022-07-17T23:20:41;19.08;54.15
72591;SHT31;60625;51.212;5.952;2022-07-17T23:25:42;19.02;54.30
72591;SHT31;60625;51.212;5.952;2022-07-17T23:30:42;18.92;54.27
72591;SHT31;60625;51.212;5.952;2022-07-17T23:35:43;18.89;54.76
72591;SHT31;60625;51.212;5.952;2022-07-17T23:40:43;18.90;54.90
72591;SHT31;60625;51.212;5.952;2022-07-17T23:45:44;18.86;55.33
72591;SHT31;60625;51.212;5.952;2022-07-17T23:50:44;18.79;55.72
72591;SHT31;60625;51.212;5.952;2022-07-17T23:55:45;18.76;55.88
